Terminal Aerodrome Forecast
Issued by NWS Twin Cities, MN

Home | Current Version | Previous Version | Graphics & Text | Print | Product List | Glossary On
Versions: 1 2 3 4 5 6 7 8 9 10 11 12 13 14 15 16 17 18 19 20 21 22 23 24
000
FTUS43 KMPX 251120
TAFSTC
TAF
KSTC 251120Z 2512/2612 08006KT P6SM BKN200
     FM251600 12009KT 5SM -TSRA SCT025 OVC050CB
     FM251900 13010KT P6SM VCSH OVC040
     FM252200 11005KT P6SM BKN100
     FM260800 VRB03KT 4SM BR SCT250=

USA.gov is the U.S. government's official web portal to all federal, state and local government web resources and services.